createdAt,value
2024-03-02T00:02:15.117Z,67.65
2024-03-02T00:05:02.680Z,71.25
2024-03-02T00:07:56.760Z,70.82
2024-03-02T00:10:44.340Z,69.82
2024-03-02T00:13:32.644Z,70.30
2024-03-02T00:16:21.403Z,72.18
2024-03-02T00:19:11.230Z,74.18
2024-03-02T00:21:58.885Z,74.18
2024-03-02T00:24:46.416Z,75.97
2024-03-02T00:27:34.124Z,72.35
2024-03-02T00:30:54.121Z,72.18
2024-03-02T00:33:44.427Z,74.40
2024-03-02T00:36:32.024Z,75.45
2024-03-02T00:39:20.435Z,73.70
2024-03-02T00:42:08.564Z,77.57
2024-03-02T00:44:55.803Z,76.13
2024-03-02T00:47:43.252Z,73.90
2024-03-02T00:50:33.741Z,74.63
2024-03-02T00:53:25.721Z,75.07
2024-03-02T00:56:14.009Z,77.93
2024-03-02T00:59:01.368Z,75.60
2024-03-02T01:01:50.034Z,74.82
2024-03-02T01:04:37.468Z,76.75
2024-03-02T01:07:26.269Z,75.03
2024-03-02T01:10:14.148Z,73.80
2024-03-02T01:13:01.751Z,76.65
2024-03-02T01:15:49.229Z,77.65
2024-03-02T01:18:36.726Z,77.32
2024-03-02T01:21:23.951Z,77.10
2024-03-02T01:24:12.738Z,78.53
2024-03-02T01:27:00.331Z,76.15
2024-03-02T01:29:47.613Z,73.97
2024-03-02T01:32:35.118Z,77.40
2024-03-02T01:35:22.412Z,75.28
2024-03-02T01:38:09.683Z,75.63
2024-03-02T01:40:59.656Z,74.90
2024-03-02T01:43:47.079Z,76.38
2024-03-02T01:46:34.520Z,76.47
2024-03-02T01:49:22.000Z,79.00
2024-03-02T01:52:09.336Z,79.47
2024-03-02T01:54:56.972Z,77.90
2024-03-02T01:57:46.488Z,75.25
2024-03-02T02:00:33.949Z,76.13
2024-03-02T02:03:21.401Z,76.20
2024-03-02T02:06:10.011Z,78.20
2024-03-02T02:08:57.540Z,75.63
2024-03-02T02:11:45.263Z,74.37
2024-03-02T02:14:33.867Z,72.53
2024-03-02T02:17:21.905Z,75.18
2024-03-02T02:20:10.191Z,74.18
2024-03-02T02:23:00.834Z,73.47
2024-03-02T02:25:48.211Z,75.28
2024-03-02T02:28:35.726Z,74.88
2024-03-02T02:31:23.234Z,74.97
2024-03-02T02:34:11.172Z,72.95
2024-03-02T02:36:58.643Z,70.22
2024-03-02T02:39:47.815Z,70.97
2024-03-02T02:42:35.319Z,71.13
2024-03-02T02:45:22.935Z,68.88
2024-03-02T02:48:10.606Z,68.00
2024-03-02T02:50:57.731Z,67.43
2024-03-02T02:53:45.138Z,69.40
2024-03-02T02:56:33.965Z,66.13
2024-03-02T02:59:21.540Z,70.43
2024-03-02T03:02:09.290Z,68.55
2024-03-02T03:04:58.689Z,30.08
2024-03-02T03:07:46.532Z,30.77
2024-03-02T03:10:34.461Z,28.50
2024-03-02T03:13:23.901Z,28.33
2024-03-02T03:16:11.259Z,28.38
2024-03-02T03:18:58.955Z,26.42
2024-03-02T03:21:46.301Z,23.33
2024-03-02T03:24:34.480Z,23.73
2024-03-02T03:27:22.162Z,26.40
2024-03-02T03:30:12.189Z,25.45
2024-03-02T03:32:59.559Z,25.60
2024-03-02T03:35:46.887Z,26.55
2024-03-02T03:38:34.141Z,24.35
2024-03-02T03:41:21.779Z,26.58
2024-03-02T03:44:09.235Z,29.08
2024-03-02T03:46:58.048Z,28.40
2024-03-02T03:49:45.656Z,29.27
2024-03-02T03:52:33.129Z,27.08
2024-03-02T03:55:20.291Z,27.77
2024-03-02T03:58:07.507Z,25.65
2024-03-02T04:00:55.058Z,29.30
2024-03-02T04:03:43.945Z,26.08
2024-03-02T04:06:31.290Z,25.10
2024-03-02T04:09:18.576Z,25.45
2024-03-02T04:12:06.571Z,27.17
2024-03-02T04:14:54.446Z,28.58
2024-03-02T04:17:41.841Z,25.50
2024-03-02T04:20:30.901Z,26.30
2024-03-02T04:23:18.312Z,23.75
2024-03-02T04:26:06.573Z,26.85
2024-03-02T04:28:53.929Z,28.02
2024-03-02T04:31:41.383Z,24.73
2024-03-02T04:34:28.675Z,27.80
2024-03-02T04:37:17.563Z,23.85
2024-03-02T04:40:08.980Z,25.55
2024-03-02T04:42:56.741Z,25.23
2024-03-02T04:45:45.007Z,27.20
2024-03-02T04:48:33.204Z,28.50
2024-03-02T04:51:20.622Z,27.98
2024-03-02T04:54:09.398Z,29.63
2024-03-02T04:56:56.688Z,26.00
2024-03-02T04:59:44.378Z,28.38
2024-03-02T05:02:31.453Z,26.45
2024-03-02T05:05:18.751Z,26.80
2024-03-02T05:08:06.723Z,28.60
2024-03-02T05:10:55.851Z,26.13
2024-03-02T05:13:42.994Z,27.08
2024-03-02T05:16:30.425Z,26.10
2024-03-02T05:19:17.745Z,25.58
2024-03-02T05:22:05.623Z,26.67
2024-03-02T05:24:52.928Z,21.73
2024-03-02T05:27:42.201Z,22.98
2024-03-02T05:30:29.640Z,26.83
2024-03-02T05:33:17.077Z,25.30
2024-03-02T05:36:04.618Z,24.15
2024-03-02T05:38:51.998Z,22.90
2024-03-02T05:41:40.099Z,26.63
2024-03-02T05:44:29.050Z,27.48
2024-03-02T05:47:16.320Z,24.98
2024-03-02T05:50:04.946Z,25.60
2024-03-02T05:52:52.360Z,26.75
2024-03-02T05:55:39.781Z,24.70
2024-03-02T05:58:39.107Z,26.58
2024-03-02T06:01:29.866Z,26.35
2024-03-02T06:04:17.355Z,23.58
2024-03-02T06:07:05.293Z,25.20
2024-03-02T06:09:53.677Z,26.27
2024-03-02T06:12:41.220Z,28.67
2024-03-02T06:15:28.495Z,24.88
2024-03-02T06:18:17.354Z,27.45
2024-03-02T06:21:05.213Z,26.55
2024-03-02T06:23:52.460Z,24.55
2024-03-02T06:26:40.746Z,27.20
2024-03-02T06:29:28.301Z,23.85
2024-03-02T06:32:15.625Z,24.10
2024-03-02T06:35:05.957Z,26.33
2024-03-02T06:37:53.467Z,24.05
2024-03-02T06:40:41.822Z,29.38
2024-03-02T06:43:29.022Z,26.88
2024-03-02T06:46:16.784Z,28.63
2024-03-02T06:49:05.353Z,30.92
2024-03-02T06:51:54.519Z,29.63
2024-03-02T06:54:41.739Z,31.23
2024-03-02T06:57:29.096Z,33.22
2024-03-02T07:00:18.996Z,34.08
2024-03-02T07:03:06.667Z,32.28
2024-03-02T07:05:53.870Z,29.98
2024-03-02T07:08:42.755Z,31.83
2024-03-02T07:11:30.044Z,28.25
2024-03-02T07:14:17.084Z,32.53
2024-03-02T07:17:04.563Z,34.53
2024-03-02T07:19:52.195Z,35.53
2024-03-02T07:22:42.400Z,33.80
2024-03-02T07:28:23.277Z,30.42
2024-03-02T07:31:11.079Z,31.27
2024-03-02T07:33:58.788Z,31.47
2024-03-02T07:36:46.099Z,29.77
2024-03-02T07:39:33.508Z,34.13
2024-03-02T07:42:22.266Z,34.08
2024-03-02T07:45:10.098Z,31.60
2024-03-02T07:47:57.743Z,30.17
2024-03-02T07:50:45.715Z,30.10
2024-03-02T07:53:33.227Z,29.13
2024-03-02T07:56:23.418Z,28.80
2024-03-02T07:59:12.286Z,29.50
2024-03-02T08:02:00.096Z,30.58
2024-03-02T08:04:48.598Z,29.70
2024-03-02T08:07:36.128Z,29.37
2024-03-02T08:10:23.809Z,28.15
2024-03-02T08:13:11.299Z,30.23
2024-03-02T08:16:00.323Z,30.33
2024-03-02T08:18:48.034Z,27.03
2024-03-02T08:21:36.594Z,28.42
2024-03-02T08:24:24.258Z,28.23
2024-03-02T08:27:11.665Z,29.35
2024-03-02T08:29:59.189Z,28.10
2024-03-02T08:32:48.611Z,25.83
2024-03-02T08:35:37.392Z,27.35
2024-03-02T14:36:19.340Z,11.02
2024-03-02T14:39:11.205Z,16.60
2024-03-02T14:41:58.899Z,16.88
2024-03-02T14:44:47.913Z,17.13
2024-03-02T14:47:36.551Z,16.88
2024-03-02T14:50:24.196Z,16.73
2024-03-02T14:53:11.410Z,16.27
2024-03-02T14:55:59.124Z,16.08
2024-03-02T14:58:46.793Z,17.67
2024-03-02T15:01:35.794Z,16.92
2024-03-02T15:04:23.918Z,16.13
2024-03-02T15:07:11.259Z,16.50
2024-03-02T15:09:58.572Z,18.30
2024-03-02T15:26:44.196Z,19.35
2024-03-02T15:29:32.288Z,30.20
2024-03-02T15:32:19.783Z,24.55
2024-03-02T15:35:09.984Z,48.50
2024-03-02T15:49:09.017Z,19.30
2024-03-02T15:52:01.294Z,16.58
2024-03-02T15:54:48.682Z,14.80
2024-03-02T15:57:37.750Z,14.48
2024-03-02T16:00:25.194Z,16.75
2024-03-02T16:03:12.558Z,32.97
2024-03-02T16:06:02.606Z,26.48
2024-03-02T16:50:50.636Z,16.48
2024-03-02T16:53:38.167Z,16.45
2024-03-02T16:56:25.768Z,17.05
2024-03-02T16:59:14.649Z,32.88
2024-03-02T17:02:01.925Z,37.17
2024-03-02T17:04:49.343Z,29.60
2024-03-02T17:07:36.724Z,21.48
2024-03-02T17:10:24.133Z,21.17
2024-03-02T17:13:11.335Z,19.65
2024-03-02T17:16:00.158Z,17.70
2024-03-02T17:18:47.769Z,20.20
2024-03-02T17:21:35.285Z,14.90
2024-03-02T17:24:22.565Z,14.63
2024-03-02T17:27:10.324Z,15.15
2024-03-02T17:29:58.056Z,15.35
2024-03-02T17:32:46.742Z,16.63
2024-03-02T17:35:36.099Z,14.73
2024-03-02T17:38:23.431Z,24.70
2024-03-02T17:41:11.723Z,27.00
2024-03-02T17:43:59.068Z,26.27
2024-03-02T17:46:46.529Z,18.70
2024-03-02T17:49:35.443Z,19.27
2024-03-02T17:52:22.644Z,26.35
2024-03-02T17:55:10.531Z,18.15
2024-03-02T17:57:58.625Z,18.05
2024-03-02T18:00:47.562Z,15.75
2024-03-02T18:03:35.291Z,18.27
2024-03-02T18:06:25.855Z,20.77
2024-03-02T18:09:14.549Z,20.25
2024-03-02T18:12:04.606Z,21.83
2024-03-02T18:14:51.956Z,21.17
2024-03-02T18:17:40.114Z,21.15
2024-03-02T18:20:27.637Z,33.10
2024-03-02T18:23:16.597Z,35.25
2024-03-02T18:26:03.984Z,30.50
2024-03-02T18:28:51.330Z,21.50
2024-03-02T18:31:38.762Z,20.48
2024-03-02T18:34:26.445Z,18.52
2024-03-02T18:37:14.704Z,15.50
2024-03-02T18:40:06.888Z,18.05
2024-03-02T18:42:56.152Z,25.35
2024-03-02T18:45:49.493Z,26.77
2024-03-02T18:48:37.707Z,18.95
2024-03-02T18:51:26.793Z,16.55
2024-03-02T18:54:17.566Z,13.93
2024-03-02T18:57:07.525Z,14.80
2024-03-02T18:59:56.297Z,12.68
2024-03-02T19:02:49.600Z,12.77
2024-03-02T19:05:40.001Z,12.55
2024-03-02T19:08:28.249Z,13.82
2024-03-02T19:11:16.136Z,13.07
2024-03-02T19:14:04.732Z,14.15
2024-03-02T19:16:52.135Z,12.43
2024-03-02T19:19:40.763Z,12.35
2024-03-02T19:22:29.488Z,12.43
2024-03-02T19:25:17.217Z,11.95
2024-03-02T19:28:05.888Z,11.02
2024-03-02T19:30:56.073Z,11.38
2024-03-02T19:33:46.263Z,11.68
2024-03-02T19:36:35.235Z,10.23
2024-03-02T19:39:27.435Z,11.00
2024-03-02T19:42:14.906Z,10.38
2024-03-02T19:45:02.499Z,9.23
2024-03-02T19:47:51.257Z,9.68
2024-03-02T19:50:40.918Z,10.57
2024-03-02T19:53:28.643Z,8.77
2024-03-02T19:56:20.486Z,10.73
2024-03-02T19:59:11.453Z,11.32
2024-03-02T20:01:59.161Z,13.15
2024-03-02T20:04:48.639Z,12.25
2024-03-02T20:07:36.945Z,10.75
2024-03-02T20:10:24.556Z,13.63
2024-03-02T20:13:11.928Z,11.02
2024-03-02T20:16:00.269Z,12.30
2024-03-02T20:18:47.827Z,10.18
2024-03-02T20:21:36.520Z,10.57
2024-03-02T20:24:24.828Z,9.88
2024-03-02T20:27:12.209Z,9.48
2024-03-02T20:29:59.755Z,9.88
2024-03-02T20:32:47.216Z,8.35
2024-03-02T20:35:34.753Z,9.15
2024-03-02T20:38:23.484Z,9.82
2024-03-02T20:41:16.526Z,8.85
2024-03-02T20:44:03.981Z,9.23
2024-03-02T20:46:51.604Z,11.00
2024-03-02T20:49:43.425Z,11.30
2024-03-02T20:52:31.543Z,9.95
2024-03-02T20:55:20.207Z,10.40
2024-03-02T20:58:07.434Z,10.13
2024-03-02T21:00:55.851Z,10.45
2024-03-02T21:03:45.311Z,8.45
2024-03-02T21:06:32.585Z,8.02
2024-03-02T21:09:20.187Z,10.77
2024-03-02T21:12:09.844Z,9.05
2024-03-02T21:14:57.499Z,8.88
2024-03-02T21:17:45.115Z,8.70
2024-03-02T21:20:32.247Z,8.90
2024-03-02T21:23:20.124Z,8.07
2024-03-02T21:26:07.570Z,7.90
2024-03-02T21:28:56.233Z,9.10
2024-03-02T21:31:43.676Z,10.13
2024-03-02T21:34:31.178Z,14.63
2024-03-02T21:37:18.768Z,16.88
2024-03-02T21:40:07.163Z,12.30
2024-03-02T21:42:55.054Z,10.05
2024-03-02T21:45:44.198Z,9.52
2024-03-02T21:48:31.818Z,9.77
2024-03-02T21:51:19.624Z,8.13
2024-03-02T21:54:07.373Z,15.15
2024-03-02T21:56:54.495Z,14.30
2024-03-02T21:59:42.612Z,11.00
2024-03-02T22:02:31.139Z,11.15
2024-03-02T22:05:18.435Z,9.23
2024-03-02T22:08:06.239Z,8.77
2024-03-02T22:10:53.971Z,8.52
2024-03-02T22:13:41.178Z,10.60
2024-03-02T22:16:28.328Z,10.20
2024-03-02T22:19:17.018Z,11.80
2024-03-02T22:22:04.401Z,10.75
2024-03-02T22:24:51.619Z,12.93
2024-03-02T22:27:41.990Z,13.75
2024-03-02T22:30:30.280Z,15.90
2024-03-02T22:33:17.505Z,16.15
2024-03-02T22:36:08.723Z,13.73
2024-03-02T22:38:56.183Z,14.93
2024-03-02T22:41:43.530Z,12.55
2024-03-02T22:44:33.058Z,10.82
2024-03-02T22:47:20.742Z,10.65
2024-03-02T22:50:09.554Z,11.07
2024-03-02T22:52:58.227Z,10.90
2024-03-02T22:55:46.025Z,12.95
2024-03-02T22:58:33.844Z,12.98
2024-03-02T23:01:22.535Z,12.25
2024-03-02T23:04:10.313Z,14.10
2024-03-02T23:06:57.776Z,15.20
2024-03-02T23:09:46.685Z,27.67
2024-03-02T23:12:34.296Z,19.50
2024-03-02T23:15:21.606Z,12.98
2024-03-02T23:18:09.217Z,14.15
2024-03-02T23:20:56.718Z,13.38
2024-03-02T23:23:44.318Z,16.48
2024-03-02T23:29:20.368Z,14.75
2024-03-02T23:32:08.198Z,14.00
2024-03-02T23:34:55.325Z,26.40
2024-03-02T23:37:42.699Z,18.38
2024-03-02T23:40:53.401Z,14.32
2024-03-02T23:43:42.161Z,13.32
2024-03-02T23:46:30.065Z,12.50
2024-03-02T23:49:17.621Z,13.07
2024-03-02T23:52:04.922Z,13.98
2024-03-02T23:54:52.645Z,13.15
2024-03-02T23:57:40.659Z,12.63
